Time;durP1;ratioP1;P1;durP2;ratioP2;P2;SDS_P1;SDS_P2;PMS_P1;PMS_P2;Temp;Humidity;BMP_temperature;BMP_pressure;BME280_temperature;BME280_humidity;BME280_pressure;Samples;Min_cycle;Max_cycle;Signal;HPM_P1;HPM_P2
2023/05/22 00:01:03;;;;;;;15.18;6.72;;;;;;;13.54;100.00;97431.03;5080929;28;20380;-85
2023/05/22 00:03:29;;;;;;;10.38;6.20;;;;;;;13.52;100.00;97440.19;5080649;28;20088;-85
2023/05/22 00:05:59;;;;;;;9.27;6.50;;;;;;;13.60;100.00;97439.63;5063432;28;20391;-85
2023/05/22 00:08:25;;;;;;;14.85;6.65;;;;;;;13.61;100.00;97447.56;5064396;28;20020;-85
2023/05/22 00:10:51;;;;;;;12.73;6.93;;;;;;;13.66;100.00;97442.69;5060487;28;20105;-85
2023/05/22 00:13:16;;;;;;;12.40;6.47;;;;;;;13.73;100.00;97437.72;5080479;28;20115;-85
2023/05/22 00:15:42;;;;;;;17.05;6.75;;;;;;;13.72;100.00;97436.84;5098121;28;20403;-85
2023/05/22 00:18:07;;;;;;;13.32;7.43;;;;;;;13.76;100.00;97438.34;5080611;28;20024;-86
2023/05/22 00:20:37;;;;;;;17.60;7.75;;;;;;;13.83;100.00;97438.72;5098695;28;20024;-85
2023/05/22 00:23:03;;;;;;;13.18;7.88;;;;;;;13.88;100.00;97437.38;5062224;28;20046;-85
2023/05/22 00:25:29;;;;;;;12.75;6.47;;;;;;;13.96;100.00;97428.75;5081080;28;20027;-85
2023/05/22 00:27:55;;;;;;;9.10;5.88;;;;;;;13.96;100.00;97416.16;5080832;28;20100;-85
2023/05/22 00:30:20;;;;;;;9.80;6.28;;;;;;;13.99;100.00;97401.63;5080947;28;20039;-85
2023/05/22 00:32:45;;;;;;;9.40;6.10;;;;;;;13.92;100.00;97397.69;5079501;28;20054;-85
2023/05/22 00:35:11;;;;;;;10.77;5.68;;;;;;;13.90;100.00;97386.19;5063011;28;20081;-85
2023/05/22 00:37:36;;;;;;;20.20;6.03;;;;;;;13.96;100.00;97391.09;5063336;28;20040;-84
2023/05/22 00:40:04;;;;;;;9.82;5.60;;;;;;;13.92;100.00;97389.63;5063620;28;20031;-84
2023/05/22 00:42:29;;;;;;;12.95;6.22;;;;;;;13.92;100.00;97392.31;5058561;28;20020;-83
2023/05/22 00:44:55;;;;;;;12.68;7.15;;;;;;;13.93;100.00;97386.81;5097992;28;20024;-85
2023/05/22 00:47:22;;;;;;;9.38;6.55;;;;;;;14.00;100.00;97390.72;5098086;28;20567;-85
2023/05/22 00:49:48;;;;;;;15.80;6.40;;;;;;;14.04;100.00;97396.72;5063464;28;20032;-84
2023/05/22 00:52:13;;;;;;;11.73;6.72;;;;;;;14.12;100.00;97395.13;5080274;28;20024;-86
2023/05/22 00:54:39;;;;;;;12.30;6.93;;;;;;;14.17;100.00;97396.63;5080181;28;20491;-84
2023/05/22 00:57:04;;;;;;;11.52;6.30;;;;;;;14.16;100.00;97394.91;5081157;28;20031;-84
2023/05/22 00:59:30;;;;;;;11.60;6.50;;;;;;;14.19;100.00;97402.72;5098588;28;20047;-83
2023/05/22 01:01:56;;;;;;;11.23;5.82;;;;;;;14.10;100.00;97388.16;5076581;28;20088;-83
2023/05/22 01:04:22;;;;;;;12.55;6.32;;;;;;;14.07;100.00;97391.09;5095140;28;20027;-83
2023/05/22 01:06:48;;;;;;;10.35;6.18;;;;;;;13.97;100.00;97398.16;5076616;28;20423;-83
2023/05/22 01:09:13;;;;;;;10.52;7.22;;;;;;;13.93;100.00;97402.94;5059789;28;20039;-84
2023/05/22 01:12:02;;;;;;;11.88;6.80;;;;;;;13.92;100.00;97406.59;5051131;28;20507;-84
2023/05/22 01:15:01;;;;;;;12.40;7.63;;;;;;;13.86;100.00;97415.16;5059943;28;20037;-85
2023/05/22 01:17:40;;;;;;;16.17;7.47;;;;;;;13.75;100.00;97420.47;5042338;28;20056;-85
2023/05/22 01:20:31;;;;;;;15.85;7.22;;;;;;;13.67;100.00;97411.28;5035785;28;20119;-85
2023/05/22 01:23:11;;;;;;;10.90;7.07;;;;;;;13.64;100.00;97422.28;5052715;28;20017;-84
2023/05/22 01:26:01;;;;;;;14.25;7.35;;;;;;;13.53;100.00;97423.09;5052706;28;20464;-84
2023/05/22 01:28:51;;;;;;;13.20;7.80;;;;;;;13.48;100.00;97420.75;5051089;28;20028;-84
2023/05/22 01:31:18;;;;;;;13.50;7.82;;;;;;;13.36;100.00;97410.06;5052774;28;20025;-85
2023/05/22 01:33:57;;;;;;;13.00;7.97;;;;;;;13.32;100.00;97420.19;5035824;28;20027;-84
2023/05/22 01:36:27;;;;;;;13.07;8.38;;;;;;;13.31;100.00;97421.19;5053168;28;20021;-85
2023/05/22 01:38:53;;;;;;;10.75;7.53;;;;;;;13.26;100.00;97422.50;5034122;28;20408;-84
2023/05/22 01:41:20;;;;;;;13.18;8.57;;;;;;;13.20;100.00;97420.25;5033863;28;20025;-85
2023/05/22 01:43:46;;;;;;;20.42;9.30;;;;;;;13.17;100.00;97426.72;5053331;28;20535;-84
2023/05/22 01:46:11;;;;;;;17.85;10.10;;;;;;;13.10;100.00;97422.78;5036650;28;20020;-85
2023/05/22 01:48:37;;;;;;;20.33;9.43;;;;;;;13.06;100.00;97429.31;5052458;28;20035;-85
2023/05/22 01:51:27;;;;;;;14.45;8.30;;;;;;;13.07;100.00;97427.47;5046606;28;20032;-85
2023/05/22 01:54:30;;;;;;;13.68;8.57;;;;;;;13.07;100.00;97431.88;5043721;28;20037;-84
2023/05/22 01:57:06;;;;;;;15.57;8.63;;;;;;;13.04;100.00;97432.09;5033330;28;20037;-83
2023/05/22 01:59:57;;;;;;;17.77;8.75;;;;;;;13.11;100.00;97431.66;5053204;28;20555;-84
2023/05/22 02:02:23;;;;;;;23.20;9.90;;;;;;;13.05;100.00;97427.59;5024901;28;20029;-84
2023/05/22 02:04:53;;;;;;;18.67;10.07;;;;;;;13.07;100.00;97431.03;5052136;28;20408;-84
2023/05/22 02:07:21;;;;;;;24.77;14.52;;;;;;;13.09;100.00;97439.00;5047311;28;20025;-84
2023/05/22 02:09:47;;;;;;;16.45;10.55;;;;;;;13.17;100.00;97439.28;5036238;28;20071;-84
2023/05/22 02:12:13;;;;;;;12.60;8.00;;;;;;;13.14;100.00;97431.44;5052273;28;20037;-84
2023/05/22 02:14:40;;;;;;;14.65;8.55;;;;;;;13.15;100.00;97434.03;5070471;28;20043;-84
2023/05/22 02:17:06;;;;;;;16.20;8.25;;;;;;;13.17;100.00;97439.28;5075516;28;20052;-84
2023/05/22 02:19:36;;;;;;;18.10;10.55;;;;;;;13.21;100.00;97430.03;5058376;28;20107;-84
2023/05/22 02:22:02;;;;;;;15.15;8.93;;;;;;;13.18;100.00;97436.50;5067843;28;20026;-83
2023/05/22 02:24:29;;;;;;;13.38;8.27;;;;;;;13.19;100.00;97427.47;5057692;28;20110;-84
2023/05/22 02:26:57;;;;;;;15.02;8.75;;;;;;;13.20;100.00;97433.66;5074650;28;20020;-84
2023/05/22 02:29:23;;;;;;;16.02;8.85;;;;;;;13.18;100.00;97424.88;5050076;28;20031;-84
2023/05/22 02:31:48;;;;;;;14.25;8.75;;;;;;;13.17;100.00;97426.72;5057508;28;20036;-84
2023/05/22 02:34:14;;;;;;;16.88;8.27;;;;;;;13.21;100.00;97430.88;5074856;28;20039;-85
2023/05/22 02:36:40;;;;;;;16.48;8.88;;;;;;;13.18;100.00;97431.13;5074979;28;20020;-85
2023/05/22 02:39:06;;;;;;;15.35;8.30;;;;;;;13.26;100.00;97438.63;5074488;28;20063;-83
2023/05/22 02:41:32;;;;;;;15.75;8.52;;;;;;;13.27;100.00;97441.19;5058230;28;20495;-84
2023/05/22 02:43:57;;;;;;;13.50;8.95;;;;;;;13.22;100.00;97432.63;5075366;28;20118;-85
2023/05/22 02:46:22;;;;;;;15.25;8.98;;;;;;;13.28;100.00;97442.91;5092606;28;20032;-85
2023/05/22 02:48:48;;;;;;;14.55;9.32;;;;;;;13.29;100.00;97438.41;5093519;28;20058;-84
2023/05/22 02:51:14;;;;;;;16.95;9.15;;;;;;;13.23;100.00;97428.06;5057235;28;20054;-85
2023/05/22 02:53:40;;;;;;;20.98;9.65;;;;;;;13.21;100.00;97433.56;5073794;28;20020;-76
2023/05/22 02:56:12;;;;;;;15.80;8.32;;;;;;;13.19;100.00;97438.22;5073957;28;20130;-82
2023/05/22 02:58:40;;;;;;;17.35;9.23;;;;;;;13.15;100.00;97436.72;5091759;28;20509;-79
2023/05/22 03:01:06;;;;;;;17.73;8.82;;;;;;;13.10;100.00;97433.53;5073528;28;20448;-80
2023/05/22 03:03:32;;;;;;;17.42;8.90;;;;;;;13.05;100.00;97427.59;5091900;28;20020;-81
2023/05/22 03:06:00;;;;;;;15.45;8.30;;;;;;;12.94;100.00;97423.03;5073926;28;20036;-79
2023/05/22 03:08:27;;;;;;;15.55;8.15;;;;;;;12.93;100.00;97426.66;5057088;28;20024;-81
2023/05/22 03:10:54;;;;;;;39.53;13.30;;;;;;;12.88;100.00;97422.59;5056455;28;20498;-79
2023/05/22 03:13:19;;;;;;;32.20;10.63;;;;;;;12.80;100.00;97417.78;5091240;28;20040;-79
2023/05/22 03:15:45;;;;;;;35.83;11.82;;;;;;;12.74;100.00;97417.38;5091068;28;20052;-79
2023/05/22 03:18:10;;;;;;;38.38;11.93;;;;;;;12.77;100.00;97430.56;5091342;28;20517;-79
2023/05/22 03:20:36;;;;;;;23.92;9.77;;;;;;;12.77;100.00;97419.81;5073158;28;20088;-77
2023/05/22 03:23:01;;;;;;;25.00;10.48;;;;;;;12.79;100.00;97428.66;5091451;28;20073;-78
2023/05/22 03:25:27;;;;;;;20.13;8.63;;;;;;;12.83;100.00;97433.66;5055594;28;20059;-78
2023/05/22 03:27:52;;;;;;;23.27;9.13;;;;;;;12.88;100.00;97426.16;5073386;28;20122;-77
2023/05/22 03:30:18;;;;;;;17.75;8.10;;;;;;;12.90;100.00;97428.72;5054195;28;20449;-78
2023/05/22 03:32:43;;;;;;;17.80;7.82;;;;;;;12.97;100.00;97427.31;5073322;28;20036;-77
2023/05/22 03:35:09;;;;;;;22.13;7.68;;;;;;;13.04;100.00;97423.22;5073141;28;20024;-78
2023/05/22 03:37:34;;;;;;;15.88;7.50;;;;;;;13.03;100.00;97418.78;5072649;28;20480;-77
2023/05/22 03:40:00;;;;;;;12.77;7.85;;;;;;;13.11;100.00;97428.97;5056220;28;20024;-79
2023/05/22 03:42:48;;;;;;;21.02;9.07;;;;;;;13.16;100.00;97426.84;5072311;28;20035;-78
2023/05/22 03:45:14;;;;;;;34.00;15.88;;;;;;;13.13;100.00;97435.13;5072771;28;20032;-78
2023/05/22 03:47:40;;;;;;;13.52;8.18;;;;;;;13.17;100.00;97429.38;5056026;28;20387;-78
2023/05/22 03:50:06;;;;;;;16.30;8.13;;;;;;;13.25;100.00;97428.84;5071713;28;20020;-78
2023/05/22 03:52:31;;;;;;;17.40;8.20;;;;;;;13.29;100.00;97428.47;5072463;28;20028;-78
2023/05/22 03:54:57;;;;;;;22.10;10.05;;;;;;;13.29;100.00;97427.66;5055697;28;20024;-78
2023/05/22 03:57:23;;;;;;;25.50;8.60;;;;;;;13.25;100.00;97432.38;5056004;28;20035;-78
2023/05/22 03:59:48;;;;;;;18.00;9.18;;;;;;;13.30;100.00;97435.56;5072587;28;20028;-79
2023/05/22 04:02:15;;;;;;;17.38;8.60;;;;;;;13.29;100.00;97433.84;5072790;28;20016;-76
2023/05/22 04:04:41;;;;;;;17.50;9.30;;;;;;;13.36;100.00;97439.63;5090104;28;20124;-78
2023/05/22 04:07:07;;;;;;;12.98;8.77;;;;;;;13.47;100.00;97432.47;5055634;28;20028;-77
2023/05/22 04:09:34;;;;;;;12.90;8.75;;;;;;;13.60;100.00;97435.09;5072926;28;20020;-77
2023/05/22 04:12:03;;;;;;;147.52;90.15;;;;;;;13.71;100.00;97435.16;5055695;28;20458;-78
2023/05/22 04:14:28;;;;;;;61.03;35.13;;;;;;;13.81;100.00;97424.56;5072426;28;20078;-78
2023/05/22 04:16:54;;;;;;;23.40;9.48;;;;;;;13.91;100.00;97428.22;5072786;28;20085;-79
2023/05/22 04:19:20;;;;;;;14.32;9.18;;;;;;;13.94;100.00;97409.16;5090735;28;20032;-79
2023/05/22 04:21:47;;;;;;;27.40;13.10;;;;;;;14.02;100.00;97398.69;5072996;28;20016;-80
2023/05/22 04:24:13;;;;;;;16.77;10.10;;;;;;;14.03;100.00;97393.16;5053605;28;20036;-80
2023/05/22 04:26:38;;;;;;;15.90;8.75;;;;;;;14.05;100.00;97393.06;5072933;28;20483;-79
2023/05/22 04:29:09;;;;;;;17.50;9.75;;;;;;;14.05;100.00;97385.84;5055751;28;20463;-80
2023/05/22 04:31:35;;;;;;;19.83;9.23;;;;;;;14.59;100.00;97401.31;5050880;28;20020;-80
2023/05/22 04:34:00;;;;;;;19.42;9.35;;;;;;;14.97;100.00;97384.72;5055613;28;20564;-80
2023/05/22 04:36:26;;;;;;;32.50;13.13;;;;;;;15.15;100.00;97361.66;5092365;28;20024;-81
2023/05/22 04:38:52;;;;;;;19.65;10.27;;;;;;;15.08;100.00;97338.91;5058496;28;20024;-78
2023/05/22 04:41:21;;;;;;;23.52;10.13;;;;;;;15.08;100.00;97333.50;5076269;28;20494;-80
2023/05/22 04:43:47;;;;;;;32.22;13.43;;;;;;;15.04;100.00;97340.97;5059910;28;20028;-79
2023/05/22 04:46:14;;;;;;;25.08;11.02;;;;;;;15.07;100.00;97337.22;5059315;28;20518;-79
2023/05/22 04:48:40;;;;;;;14.20;8.48;;;;;;;15.12;100.00;97326.88;5059660;28;20433;-79
2023/05/22 04:51:05;;;;;;;25.45;8.77;;;;;;;15.12;100.00;97326.88;5059047;28;20111;-80
2023/05/22 04:53:32;;;;;;;22.92;9.55;;;;;;;15.26;100.00;97329.28;5059395;28;20115;-79
2023/05/22 04:55:58;;;;;;;19.50;9.13;;;;;;;15.59;100.00;97317.50;5076022;28;20028;-80
2023/05/22 04:58:26;;;;;;;20.88;8.43;;;;;;;16.28;100.00;97305.97;5076070;28;20024;-80
2023/05/22 05:00:56;;;;;;;15.43;8.68;;;;;;;16.61;100.00;97277.81;5059982;28;20023;-80
2023/05/22 05:03:22;;;;;;;20.83;11.02;;;;;;;16.54;100.00;97275.78;5076078;28;20028;-81
2023/05/22 05:05:48;;;;;;;12.93;7.90;;;;;;;16.60;100.00;97284.22;5076112;28;20514;-80
2023/05/22 05:08:13;;;;;;;19.05;8.80;;;;;;;16.47;100.00;97280.88;5075705;28;20024;-81
2023/05/22 05:10:39;;;;;;;13.00;7.43;;;;;;;16.54;100.00;97279.38;5059254;28;20027;-81
2023/05/22 05:13:04;;;;;;;12.82;6.90;;;;;;;16.67;100.00;97273.72;5075853;28;20024;-81
2023/05/22 05:15:30;;;;;;;14.25;6.68;;;;;;;17.39;100.00;97276.88;5076045;28;20493;-81
2023/05/22 05:17:55;;;;;;;10.55;6.43;;;;;;;18.85;100.00;97267.13;5075985;28;20125;-81
2023/05/22 05:20:21;;;;;;;13.35;6.22;;;;;;;20.09;100.00;97245.25;5058631;28;20340;-80
2023/05/22 05:22:47;;;;;;;10.00;5.88;;;;;;;20.90;100.00;97232.88;5075924;28;20032;-80
2023/05/22 05:25:12;;;;;;;16.42;6.47;;;;;;;22.16;100.00;97221.47;5093424;28;20398;-81
2023/05/22 05:27:38;;;;;;;9.90;5.40;;;;;;;22.55;100.00;97222.34;5075789;28;20020;-80
2023/05/22 05:30:05;;;;;;;13.57;6.30;;;;;;;22.82;100.00;97201.97;5075984;28;20111;-80
2023/05/22 05:32:30;;;;;;;10.60;5.50;;;;;;;23.51;97.43;97183.72;5058323;28;20103;-80
2023/05/22 05:34:56;;;;;;;22.45;6.72;;;;;;;23.99;94.50;97188.72;5075226;28;20089;-80
2023/05/22 05:37:22;;;;;;;12.00;6.13;;;;;;;23.75;92.75;97169.84;5058597;28;20032;-80
2023/05/22 05:39:47;;;;;;;9.18;5.55;;;;;;;23.47;94.33;97176.97;5075334;28;20063;-80
2023/05/22 05:42:13;;;;;;;7.00;5.05;;;;;;;24.13;91.08;97190.66;5075484;28;20752;-80
2023/05/22 05:44:38;;;;;;;8.70;6.47;;;;;;;24.70;86.50;97192.69;5058559;28;20024;-80
2023/05/22 05:47:05;;;;;;;12.88;5.70;;;;;;;24.91;83.91;97194.63;5074946;28;20446;-81
2023/05/22 05:49:30;;;;;;;10.02;6.32;;;;;;;25.22;81.85;97198.78;5058192;28;20024;-80
2023/05/22 05:51:56;;;;;;;9.35;6.20;;;;;;;24.97;82.22;97202.94;5058226;28;20020;-79
2023/05/22 05:54:22;;;;;;;11.82;6.07;;;;;;;24.83;83.51;97203.78;5058313;28;20093;-80
2023/05/22 05:56:47;;;;;;;9.55;5.80;;;;;;;24.57;82.50;97203.44;5058380;28;20085;-80
2023/05/22 05:59:13;;;;;;;14.52;6.63;;;;;;;25.33;80.58;97206.47;5058484;28;20024;-80
2023/05/22 06:01:42;;;;;;;9.50;5.60;;;;;;;25.70;76.33;97193.56;5058049;28;20047;-80
2023/05/22 06:04:07;;;;;;;12.52;6.38;;;;;;;25.90;73.34;97191.84;5058292;28;20009;-80
2023/05/22 06:06:34;;;;;;;10.88;5.60;;;;;;;25.75;75.10;97189.16;5092765;28;20019;-80
2023/05/22 06:09:01;;;;;;;14.65;7.07;;;;;;;25.47;77.48;97191.00;5074737;28;20099;-79
2023/05/22 06:11:27;;;;;;;15.00;7.05;;;;;;;24.19;87.64;97199.97;5057752;28;20438;-79
2023/05/22 06:13:53;;;;;;;13.88;7.13;;;;;;;23.81;88.31;97198.31;5092581;28;20097;-78
2023/05/22 06:16:19;;;;;;;15.07;6.78;;;;;;;24.20;88.75;97201.69;5074613;28;20480;-81
2023/05/22 06:18:45;;;;;;;11.63;5.97;;;;;;;24.51;87.49;97204.22;5057807;28;20032;-80
2023/05/22 06:21:11;;;;;;;16.15;7.22;;;;;;;25.02;79.67;97191.38;5074767;28;20107;-82
2023/05/22 06:23:36;;;;;;;12.30;6.22;;;;;;;23.98;87.52;97195.22;5074269;28;20119;-81
2023/05/22 06:26:03;;;;;;;11.45;6.20;;;;;;;23.02;92.44;97203.19;5074780;28;20096;-81
2023/05/22 06:28:29;;;;;;;11.10;6.38;;;;;;;23.18;90.44;97192.16;5057917;28;20411;-81
2023/05/22 06:30:55;;;;;;;21.13;7.50;;;;;;;24.02;91.18;97207.50;5074503;28;20081;-80
2023/05/22 06:33:21;;;;;;;16.88;6.07;;;;;;;24.90;81.52;97193.78;5057741;28;20059;-81
2023/05/22 06:35:47;;;;;;;20.45;6.65;;;;;;;25.96;77.28;97198.41;5074168;28;20522;-79
2023/05/22 06:38:12;;;;;;;13.68;6.57;;;;;;;25.15;76.12;97170.47;5057507;28;20093;-81
2023/05/22 06:40:38;;;;;;;13.35;6.10;;;;;;;25.55;77.89;97181.84;5092029;28;20031;-80
2023/05/22 06:43:03;;;;;;;13.20;6.55;;;;;;;26.30;74.64;97188.31;5074305;28;20020;-81
2023/05/22 06:45:29;;;;;;;14.00;6.00;;;;;;;26.78;66.37;97177.38;5057048;28;20093;-80
2023/05/22 06:47:54;;;;;;;12.75;5.28;;;;;;;26.59;68.33;97181.72;5073996;28;20020;-81
2023/05/22 06:50:21;;;;;;;9.95;6.00;;;;;;;26.36;67.32;97164.75;5073698;28;20024;-81
2023/05/22 06:52:47;;;;;;;12.27;5.95;;;;;;;27.55;64.00;97179.72;5057022;28;20403;-81
2023/05/22 06:55:13;;;;;;;12.38;6.55;;;;;;;28.75;57.34;97170.06;5073764;28;20113;-81
2023/05/22 06:57:38;;;;;;;8.18;5.78;;;;;;;28.47;55.55;97155.72;5057103;28;20403;-80
2023/05/22 07:00:08;;;;;;;10.68;6.50;;;;;;;27.55;57.65;97141.25;5073654;28;20478;-81
2023/05/22 07:02:34;;;;;;;10.10;5.10;;;;;;;26.01;64.32;97147.41;5073143;28;20033;-79
2023/05/22 07:04:59;;;;;;;13.88;5.78;;;;;;;26.24;65.42;97149.91;5073607;28;20032;-81
2023/05/22 07:07:25;;;;;;;13.50;6.22;;;;;;;26.31;66.25;97154.34;5074559;28;20027;-81
2023/05/22 07:09:50;;;;;;;13.52;6.40;;;;;;;27.42;62.69;97164.91;5074126;28;20043;-80
2023/05/22 07:12:16;;;;;;;11.93;5.80;;;;;;;27.89;59.83;97158.38;5057348;28;20086;-81
2023/05/22 07:14:41;;;;;;;11.52;5.63;;;;;;;28.21;56.79;97148.38;5056712;28;20056;-80
2023/05/22 07:17:07;;;;;;;7.85;4.90;;;;;;;28.34;53.86;97139.25;5073463;28;20130;-80
2023/05/22 07:19:34;;;;;;;8.38;5.07;;;;;;;28.52;54.56;97151.25;5073797;28;20480;-80
2023/05/22 07:22:00;;;;;;;12.63;6.70;;;;;;;29.50;53.38;97158.19;5073926;28;20391;-81
2023/05/22 07:24:25;;;;;;;9.45;5.57;;;;;;;28.82;54.47;97137.84;5073530;28;20024;-81
2023/05/22 07:26:51;;;;;;;11.88;5.88;;;;;;;28.85;53.85;97137.38;5056496;28;20088;-81
2023/05/22 07:29:16;;;;;;;7.22;4.93;;;;;;;28.44;54.91;97137.75;5057036;28;20115;-81
2023/05/22 07:31:42;;;;;;;7.10;4.88;;;;;;;28.79;54.26;97142.94;5073308;28;20465;-81
2023/05/22 07:34:08;;;;;;;9.35;5.28;;;;;;;28.31;55.36;97126.78;5056779;28;20057;-81
2023/05/22 07:36:34;;;;;;;11.15;5.35;;;;;;;27.87;57.45;97132.13;5073445;28;20073;-81
2023/05/22 07:39:00;;;;;;;11.32;5.70;;;;;;;27.95;59.36;97149.25;5073644;28;20166;-81
2023/05/22 07:41:28;;;;;;;9.15;5.15;;;;;;;29.21;53.60;97149.66;5056421;28;20111;-81
2023/05/22 07:43:54;;;;;;;7.22;4.65;;;;;;;29.21;53.46;97145.00;5073906;28;20050;-81
2023/05/22 07:46:20;;;;;;;10.50;5.85;;;;;;;29.80;51.61;97144.59;5073323;28;20506;-81
2023/05/22 07:48:45;;;;;;;7.57;4.95;;;;;;;29.97;50.81;97142.13;5056338;28;20039;-81
2023/05/22 07:51:12;;;;;;;11.30;5.05;;;;;;;30.29;48.97;97140.94;5056993;28;20398;-81
2023/05/22 07:53:38;;;;;;;10.43;4.88;;;;;;;30.27;48.41;97143.06;5056773;28;20027;-81
2023/05/22 07:56:04;;;;;;;12.50;6.18;;;;;;;29.35;51.24;97132.84;5056391;28;20488;-79
2023/05/22 07:58:29;;;;;;;8.75;4.82;;;;;;;28.64;52.34;97123.06;5091697;28;20076;-81
2023/05/22 08:00:55;;;;;;;8.50;5.18;;;;;;;29.31;51.97;97137.13;5072951;28;20114;-80
2023/05/22 08:03:20;;;;;;;12.90;5.00;;;;;;;28.69;53.01;97120.50;5073174;28;20020;-79
2023/05/22 08:05:46;;;;;;;11.55;6.35;;;;;;;29.06;53.80;97127.94;5072972;28;20028;-80
2023/05/22 08:08:11;;;;;;;21.00;6.10;;;;;;;29.79;51.96;97140.13;5056493;28;20039;-81
2023/05/22 08:10:37;;;;;;;9.35;4.53;;;;;;;29.49;51.16;97123.44;5057314;28;20097;-81
2023/05/22 08:13:05;;;;;;;15.93;6.13;;;;;;;29.08;54.81;97136.81;5077512;28;20456;-80
2023/05/22 08:15:33;;;;;;;8.07;5.30;;;;;;;29.81;51.35;97137.16;5060368;28;20131;-81
2023/05/22 08:18:00;;;;;;;11.32;4.32;;;;;;;30.66;47.99;97146.50;5061024;28;20036;-80
2023/05/22 08:20:25;;;;;;;12.38;4.70;;;;;;;29.54;50.47;97115.31;5077040;28;20380;-81
2023/05/22 08:22:51;;;;;;;13.85;4.80;;;;;;;29.56;51.59;97123.38;5077134;28;20054;-80
2023/05/22 08:25:16;;;;;;;6.85;4.45;;;;;;;29.78;50.44;97126.59;5076902;28;20117;-80
2023/05/22 08:27:42;;;;;;;8.80;4.45;;;;;;;29.54;48.66;97108.94;5094870;28;20396;-80
2023/05/22 08:30:08;;;;;;;9.20;4.50;;;;;;;29.14;50.40;97119.41;5059893;28;20028;-81
2023/05/22 08:32:33;;;;;;;7.22;4.35;;;;;;;28.96;50.24;97117.41;5094488;28;20468;-80
2023/05/22 08:34:59;;;;;;;8.18;4.65;;;;;;;28.62;52.15;97114.16;5059989;28;20035;-81
2023/05/22 08:37:25;;;;;;;7.10;4.60;;;;;;;28.84;52.74;97126.56;5059675;28;20481;-80
2023/05/22 08:39:50;;;;;;;5.25;4.03;;;;;;;28.69;50.35;97104.84;5076641;28;20137;-81
2023/05/22 08:42:16;;;;;;;7.82;4.07;;;;;;;29.28;48.47;97110.03;5094774;28;20376;-79
2023/05/22 08:44:42;;;;;;;6.13;4.07;;;;;;;30.12;46.65;97123.28;5059910;28;20032;-80
2023/05/22 08:47:12;;;;;;;10.30;4.40;;;;;;;31.42;44.04;97133.75;5094726;28;20020;-80
2023/05/22 08:49:38;;;;;;;9.40;4.20;;;;;;;31.35;43.39;97115.59;5076205;28;20016;-80
2023/05/22 08:52:21;;;;;;;8.55;4.00;;;;;;;30.16;46.41;97119.00;5059477;28;20117;-81
2023/05/22 08:54:52;;;;;;;5.45;3.88;;;;;;;30.20;47.16;97114.72;5076323;28;20129;-79
2023/05/22 08:57:19;;;;;;;7.80;3.90;;;;;;;28.70;50.42;97092.75;5059389;28;20085;-80
2023/05/22 08:59:45;;;;;;;7.13;4.75;;;;;;;28.13;53.75;97104.59;5059496;28;20020;-81
2023/05/22 09:02:11;;;;;;;14.68;5.13;;;;;;;28.51;55.30;97112.94;5076095;28;20395;-81
2023/05/22 09:04:40;;;;;;;8.88;4.13;;;;;;;28.49;54.66;97109.53;5075966;28;20043;-80
2023/05/22 09:07:05;;;;;;;9.60;4.28;;;;;;;28.57;53.60;97105.72;5059151;28;20035;-81
2023/05/22 09:09:35;;;;;;;9.63;4.07;;;;;;;28.40;53.07;97103.44;5059022;28;20023;-81
2023/05/22 09:12:01;;;;;;;40.72;25.05;;;;;;;29.04;52.31;97099.75;5059164;28;20032;-82
2023/05/22 09:14:27;;;;;;;17.95;4.63;;;;;;;28.79;55.52;97101.63;5075604;28;20070;-81
2023/05/22 09:16:53;;;;;;;9.48;4.20;;;;;;;27.60;56.99;97086.47;5076052;28;20059;-81
2023/05/22 09:19:19;;;;;;;10.27;4.57;;;;;;;27.40;59.04;97097.47;5075914;28;20020;-81
2023/05/22 09:21:46;;;;;;;9.93;4.78;;;;;;;27.34;61.22;97096.41;5058241;28;20050;-82
2023/05/22 09:24:12;;;;;;;7.60;4.32;;;;;;;27.47;58.89;97087.34;5058499;28;20488;-81
2023/05/22 09:26:38;;;;;;;15.13;4.00;;;;;;;28.57;54.89;97100.22;5075644;28;20111;-80
2023/05/22 09:29:07;;;;;;;7.10;4.22;;;;;;;29.10;52.43;97106.31;5075799;28;20040;-81
2023/05/22 09:31:42;;;;;;;7.70;4.18;;;;;;;28.93;53.08;97100.47;5075553;28;20051;-81
2023/05/22 09:34:09;;;;;;;4.95;4.03;;;;;;;30.29;49.77;97123.53;5075890;28;20032;-79
2023/05/22 09:36:35;;;;;;;8.70;5.40;;;;;;;29.93;47.54;97103.09;5058689;28;20027;-80
2023/05/22 09:39:03;;;;;;;9.43;3.88;;;;;;;29.10;50.83;97095.28;5075334;28;20082;-80
2023/05/22 09:41:30;;;;;;;24.98;6.60;;;;;;;28.53;53.05;97084.13;5075539;28;20472;-81
2023/05/22 09:43:55;;;;;;;14.40;4.88;;;;;;;28.38;55.08;97096.47;5058819;28;20024;-80
2023/05/22 09:46:21;;;;;;;8.65;4.32;;;;;;;28.06;55.28;97089.16;5076056;28;20399;-81
2023/05/22 09:48:52;;;;;;;14.00;5.28;;;;;;;27.72;58.10;97088.34;5075532;28;20032;-81
2023/05/22 09:51:25;;;;;;;12.98;6.65;;;;;;;27.71;57.47;97089.44;5075444;28;20024;-82
2023/05/22 09:53:52;;;;;;;22.67;4.80;;;;;;;27.78;56.65;97101.25;5059138;28;20396;-82
2023/05/22 09:56:18;;;;;;;14.05;5.88;;;;;;;27.57;59.58;97090.50;5075709;28;20477;-82
2023/05/22 09:58:46;;;;;;;12.20;5.88;;;;;;;27.50;56.35;97097.06;5058276;28;20407;-82
2023/05/22 10:01:14;;;;;;;6.05;4.03;;;;;;;27.72;54.15;97096.59;5075538;28;20089;-82
2023/05/22 10:03:40;;;;;;;9.25;4.25;;;;;;;27.79;53.59;97091.94;5058370;28;20031;-81
2023/05/22 10:06:08;;;;;;;13.88;4.95;;;;;;;27.33;54.42;97083.72;5075197;28;20028;-81
2023/05/22 10:08:44;;;;;;;6.38;4.22;;;;;;;27.15;55.08;97090.88;5074885;28;20101;-80
2023/05/22 10:11:10;;;;;;;6.10;4.22;;;;;;;27.33;54.23;97086.47;5075006;28;20184;-81
2023/05/22 10:13:36;;;;;;;9.05;4.10;;;;;;;27.63;52.62;97095.13;5074270;28;20495;-80
2023/05/22 10:16:03;;;;;;;4.90;3.92;;;;;;;27.42;54.28;97079.72;5058119;28;20036;-81
2023/05/22 10:18:29;;;;;;;11.05;4.65;;;;;;;26.77;57.86;97087.81;5058102;28;20053;-81
2023/05/22 10:20:56;;;;;;;6.88;4.18;;;;;;;26.37;61.53;97079.47;5057514;28;20124;-81
2023/05/22 10:23:22;;;;;;;7.80;4.50;;;;;;;26.21;62.71;97088.06;5074611;28;20031;-81
2023/05/22 10:25:47;;;;;;;18.63;10.50;;;;;;;25.62;65.53;97089.59;5057959;28;20031;-80
2023/05/22 10:28:18;;;;;;;9.20;4.30;;;;;;;25.81;63.07;97083.38;5057994;28;20032;-81
2023/05/22 10:30:57;;;;;;;8.55;4.55;;;;;;;25.97;63.69;97094.00;5057672;28;20563;-81
2023/05/22 10:33:25;;;;;;;9.07;4.75;;;;;;;25.68;62.92;97092.38;5057521;28;20115;-82
2023/05/22 10:36:29;;;;;;;7.40;5.20;;;;;;;25.86;62.65;97102.81;5057692;28;20036;-79
2023/05/22 10:39:43;;;;;;;9.90;4.03;;;;;;;26.07;60.03;97097.25;4993654;28;20057;-78
2023/05/22 10:42:15;;;;;;;7.68;4.40;;;;;;;26.57;56.24;97090.53;4978452;28;20463;-79
2023/05/22 10:44:42;;;;;;;11.23;4.53;;;;;;;26.97;56.66;97097.00;5079004;28;20134;-78
2023/05/22 10:47:10;;;;;;;19.25;6.97;;;;;;;27.21;57.99;97104.63;5074215;28;20495;-80
2023/05/22 10:49:35;;;;;;;19.33;7.00;;;;;;;27.77;56.28;97101.47;5074314;28;20028;-79
2023/05/22 10:52:02;;;;;;;12.30;5.18;;;;;;;27.61;55.47;97094.50;5073455;28;20039;-79
2023/05/22 10:54:44;;;;;;;6.68;4.57;;;;;;;27.80;50.67;97077.16;5073579;28;20028;-80
2023/05/22 10:57:14;;;;;;;12.82;4.00;;;;;;;27.94;51.82;97080.69;5088362;28;20016;-79
2023/05/22 10:59:40;;;;;;;8.32;4.15;;;;;;;28.76;50.61;97089.13;5074060;28;20032;-79
2023/05/22 11:02:27;;;;;;;11.98;4.47;;;;;;;28.85;50.43;97081.47;5056650;28;20024;-80
2023/05/22 11:04:53;;;;;;;7.38;4.00;;;;;;;29.30;48.74;97083.06;5057192;28;20035;-79
2023/05/22 11:07:19;;;;;;;12.38;5.15;;;;;;;28.93;50.09;97061.91;5091507;28;20028;-78
2023/05/22 11:09:46;;;;;;;19.52;6.35;;;;;;;28.21;53.38;97063.09;5091626;28;20024;-79
2023/05/22 11:12:16;;;;;;;13.60;5.22;;;;;;;27.77;55.16;97050.09;5069743;28;20404;-78
2023/05/22 11:15:07;;;;;;;11.38;5.60;;;;;;;27.36;57.68;97058.56;5052945;28;20142;-79
2023/05/22 11:17:49;;;;;;;8.35;4.60;;;;;;;27.16;58.07;97048.66;5073525;28;20020;-80
2023/05/22 11:20:24;;;;;;;7.38;4.32;;;;;;;27.64;58.90;97072.09;5074177;28;20485;-79
2023/05/22 11:22:57;;;;;;;9.27;4.10;;;;;;;27.89;54.52;97069.50;5057024;28;20028;-79
2023/05/22 11:25:23;;;;;;;11.30;4.10;;;;;;;28.42;52.79;97062.81;5056326;28;20415;-79